sensor_id;sensor_type;location;lat;lon;timestamp;P1;durP1;ratioP1;P2;durP2;ratioP2
54853;SDS011;40747;49.480;8.658;2023-03-01T00:00:10;6.05;;;3.60;;
54853;SDS011;40747;49.480;8.658;2023-03-01T00:02:35;2.38;;;2.17;;
54853;SDS011;40747;49.480;8.658;2023-03-01T00:05:01;2.58;;;2.35;;
54853;SDS011;40747;49.480;8.658;2023-03-01T00:07:26;4.22;;;2.95;;
54853;SDS011;40747;49.480;8.658;2023-03-01T00:09:52;7.25;;;3.50;;
54853;SDS011;40747;49.480;8.658;2023-03-01T00:12:17;5.43;;;2.42;;
54853;SDS011;40747;49.480;8.658;2023-03-01T00:14:42;2.28;;;2.13;;
54853;SDS011;40747;49.480;8.658;2023-03-01T00:17:07;2.88;;;1.52;;
54853;SDS011;40747;49.480;8.658;2023-03-01T00:19:33;4.93;;;2.25;;
54853;SDS011;40747;49.480;8.658;2023-03-01T00:21:58;3.25;;;2.67;;
54853;SDS011;40747;49.480;8.658;2023-03-01T00:24:23;7.25;;;2.85;;
54853;SDS011;40747;49.480;8.658;2023-03-01T00:26:52;5.95;;;2.55;;
54853;SDS011;40747;49.480;8.658;2023-03-01T00:29:20;3.47;;;3.17;;
54853;SDS011;40747;49.480;8.658;2023-03-01T00:31:45;4.28;;;2.28;;
54853;SDS011;40747;49.480;8.658;2023-03-01T00:34:11;4.10;;;3.08;;
54853;SDS011;40747;49.480;8.658;2023-03-01T00:36:36;6.13;;;3.42;;
54853;SDS011;40747;49.480;8.658;2023-03-01T00:39:02;11.48;;;4.07;;
54853;SDS011;40747;49.480;8.658;2023-03-01T00:41:29;2.25;;;1.77;;
54853;SDS011;40747;49.480;8.658;2023-03-01T00:43:55;3.30;;;2.35;;
54853;SDS011;40747;49.480;8.658;2023-03-01T00:46:21;7.68;;;3.75;;
54853;SDS011;40747;49.480;8.658;2023-03-01T00:48:48;4.40;;;3.53;;
54853;SDS011;40747;49.480;8.658;2023-03-01T00:51:15;7.07;;;4.00;;
54853;SDS011;40747;49.480;8.658;2023-03-01T00:53:51;7.45;;;3.42;;
54853;SDS011;40747;49.480;8.658;2023-03-01T00:56:19;6.03;;;3.55;;
54853;SDS011;40747;49.480;8.658;2023-03-01T00:58:45;6.28;;;3.63;;
54853;SDS011;40747;49.480;8.658;2023-03-01T01:01:12;5.10;;;3.28;;
54853;SDS011;40747;49.480;8.658;2023-03-01T01:03:43;9.68;;;5.70;;
54853;SDS011;40747;49.480;8.658;2023-03-01T01:06:13;6.80;;;4.22;;
54853;SDS011;40747;49.480;8.658;2023-03-01T01:08:42;4.03;;;3.08;;
54853;SDS011;40747;49.480;8.658;2023-03-01T01:11:08;5.15;;;3.47;;
54853;SDS011;40747;49.480;8.658;2023-03-01T01:13:35;3.97;;;3.28;;
54853;SDS011;40747;49.480;8.658;2023-03-01T01:16:01;10.85;;;3.83;;
54853;SDS011;40747;49.480;8.658;2023-03-01T01:18:27;8.45;;;4.20;;
54853;SDS011;40747;49.480;8.658;2023-03-01T01:20:52;4.32;;;3.67;;
54853;SDS011;40747;49.480;8.658;2023-03-01T01:23:17;6.45;;;3.45;;
54853;SDS011;40747;49.480;8.658;2023-03-01T01:25:43;5.97;;;3.65;;
54853;SDS011;40747;49.480;8.658;2023-03-01T01:28:08;4.00;;;3.25;;
54853;SDS011;40747;49.480;8.658;2023-03-01T01:30:33;6.10;;;3.53;;
54853;SDS011;40747;49.480;8.658;2023-03-01T01:32:58;1.85;;;1.10;;
54853;SDS011;40747;49.480;8.658;2023-03-01T01:35:24;4.95;;;3.55;;
54853;SDS011;40747;49.480;8.658;2023-03-01T01:37:49;4.88;;;4.30;;
54853;SDS011;40747;49.480;8.658;2023-03-01T01:40:15;3.88;;;2.88;;
54853;SDS011;40747;49.480;8.658;2023-03-01T01:42:40;5.65;;;2.78;;
54853;SDS011;40747;49.480;8.658;2023-03-01T01:45:24;8.95;;;4.57;;
54853;SDS011;40747;49.480;8.658;2023-03-01T01:47:55;5.65;;;3.67;;
54853;SDS011;40747;49.480;8.658;2023-03-01T01:50:25;6.10;;;4.22;;
54853;SDS011;40747;49.480;8.658;2023-03-01T01:52:51;2.58;;;2.03;;
54853;SDS011;40747;49.480;8.658;2023-03-01T01:55:19;3.83;;;2.90;;
54853;SDS011;40747;49.480;8.658;2023-03-01T01:57:51;8.55;;;5.90;;
54853;SDS011;40747;49.480;8.658;2023-03-01T02:00:24;3.67;;;2.40;;
54853;SDS011;40747;49.480;8.658;2023-03-01T02:02:56;1.35;;;1.10;;
54853;SDS011;40747;49.480;8.658;2023-03-01T02:08:13;7.78;;;3.83;;
54853;SDS011;40747;49.480;8.658;2023-03-01T02:10:41;6.30;;;4.30;;
54853;SDS011;40747;49.480;8.658;2023-03-01T02:13:07;5.75;;;3.35;;
54853;SDS011;40747;49.480;8.658;2023-03-01T02:15:34;4.32;;;3.33;;
54853;SDS011;40747;49.480;8.658;2023-03-01T02:18:03;6.13;;;4.45;;
54853;SDS011;40747;49.480;8.658;2023-03-01T02:20:33;11.50;;;5.50;;
54853;SDS011;40747;49.480;8.658;2023-03-01T02:22:59;3.90;;;2.80;;
54853;SDS011;40747;49.480;8.658;2023-03-01T02:30:58;6.53;;;3.50;;
54853;SDS011;40747;49.480;8.658;2023-03-01T02:33:42;8.13;;;4.22;;
54853;SDS011;40747;49.480;8.658;2023-03-01T02:36:22;4.18;;;2.33;;
54853;SDS011;40747;49.480;8.658;2023-03-01T02:38:51;4.03;;;2.17;;
54853;SDS011;40747;49.480;8.658;2023-03-01T02:41:20;3.63;;;3.28;;
54853;SDS011;40747;49.480;8.658;2023-03-01T02:43:47;10.93;;;2.65;;
54853;SDS011;40747;49.480;8.658;2023-03-01T02:46:14;6.07;;;3.90;;
54853;SDS011;40747;49.480;8.658;2023-03-01T02:48:45;4.05;;;3.20;;
54853;SDS011;40747;49.480;8.658;2023-03-01T02:56:52;7.35;;;3.42;;
54853;SDS011;40747;49.480;8.658;2023-03-01T02:59:19;4.13;;;2.20;;
54853;SDS011;40747;49.480;8.658;2023-03-01T03:01:47;6.63;;;3.50;;
54853;SDS011;40747;49.480;8.658;2023-03-01T03:04:14;5.75;;;2.75;;
54853;SDS011;40747;49.480;8.658;2023-03-01T03:06:46;5.07;;;3.22;;
54853;SDS011;40747;49.480;8.658;2023-03-01T03:09:13;7.55;;;5.18;;
54853;SDS011;40747;49.480;8.658;2023-03-01T03:11:39;4.28;;;3.83;;
54853;SDS011;40747;49.480;8.658;2023-03-01T03:14:06;10.40;;;4.50;;
54853;SDS011;40747;49.480;8.658;2023-03-01T03:16:39;16.13;;;6.47;;
54853;SDS011;40747;49.480;8.658;2023-03-01T03:19:06;5.78;;;4.95;;
54853;SDS011;40747;49.480;8.658;2023-03-01T03:21:32;5.00;;;3.35;;
54853;SDS011;40747;49.480;8.658;2023-03-01T03:23:57;4.32;;;3.35;;
54853;SDS011;40747;49.480;8.658;2023-03-01T03:26:23;8.55;;;4.60;;
54853;SDS011;40747;49.480;8.658;2023-03-01T03:28:49;9.38;;;4.32;;
54853;SDS011;40747;49.480;8.658;2023-03-01T03:31:14;3.50;;;2.53;;
54853;SDS011;40747;49.480;8.658;2023-03-01T03:33:39;5.70;;;3.50;;
54853;SDS011;40747;49.480;8.658;2023-03-01T03:36:05;3.58;;;2.67;;
54853;SDS011;40747;49.480;8.658;2023-03-01T03:38:30;5.75;;;3.67;;
54853;SDS011;40747;49.480;8.658;2023-03-01T03:41:03;3.03;;;1.98;;
54853;SDS011;40747;49.480;8.658;2023-03-01T03:43:31;6.05;;;1.48;;
54853;SDS011;40747;49.480;8.658;2023-03-01T03:45:57;3.42;;;3.13;;
54853;SDS011;40747;49.480;8.658;2023-03-01T03:48:23;3.17;;;2.58;;
54853;SDS011;40747;49.480;8.658;2023-03-01T03:50:51;6.28;;;4.07;;
54853;SDS011;40747;49.480;8.658;2023-03-01T03:53:18;5.35;;;4.15;;
54853;SDS011;40747;49.480;8.658;2023-03-01T03:55:46;6.57;;;4.05;;
54853;SDS011;40747;49.480;8.658;2023-03-01T03:58:14;10.90;;;5.18;;
54853;SDS011;40747;49.480;8.658;2023-03-01T04:00:41;6.55;;;3.28;;
54853;SDS011;40747;49.480;8.658;2023-03-01T04:03:09;3.08;;;2.72;;
54853;SDS011;40747;49.480;8.658;2023-03-01T04:05:36;5.82;;;4.55;;
54853;SDS011;40747;49.480;8.658;2023-03-01T04:08:02;9.85;;;3.75;;
54853;SDS011;40747;49.480;8.658;2023-03-01T04:10:29;11.32;;;5.82;;
54853;SDS011;40747;49.480;8.658;2023-03-01T04:12:56;6.03;;;2.17;;
54853;SDS011;40747;49.480;8.658;2023-03-01T04:15:22;7.75;;;3.92;;
54853;SDS011;40747;49.480;8.658;2023-03-01T04:17:49;6.13;;;4.55;;
54853;SDS011;40747;49.480;8.658;2023-03-01T04:20:17;5.03;;;2.72;;
54853;SDS011;40747;49.480;8.658;2023-03-01T04:22:57;9.68;;;5.00;;
54853;SDS011;40747;49.480;8.658;2023-03-01T04:25:25;11.43;;;5.65;;
54853;SDS011;40747;49.480;8.658;2023-03-01T04:27:50;8.57;;;4.10;;
54853;SDS011;40747;49.480;8.658;2023-03-01T04:30:16;3.15;;;2.03;;
54853;SDS011;40747;49.480;8.658;2023-03-01T04:32:41;6.28;;;4.13;;
54853;SDS011;40747;49.480;8.658;2023-03-01T04:35:07;8.43;;;5.43;;
54853;SDS011;40747;49.480;8.658;2023-03-01T04:37:33;11.70;;;4.20;;
54853;SDS011;40747;49.480;8.658;2023-03-01T04:39:59;7.07;;;4.00;;
54853;SDS011;40747;49.480;8.658;2023-03-01T04:42:26;6.13;;;5.05;;
54853;SDS011;40747;49.480;8.658;2023-03-01T04:44:51;4.85;;;4.10;;
54853;SDS011;40747;49.480;8.658;2023-03-01T04:47:17;10.10;;;4.65;;
54853;SDS011;40747;49.480;8.658;2023-03-01T04:49:42;11.43;;;4.25;;
54853;SDS011;40747;49.480;8.658;2023-03-01T04:52:07;9.23;;;5.60;;
54853;SDS011;40747;49.480;8.658;2023-03-01T04:54:34;8.13;;;4.00;;
54853;SDS011;40747;49.480;8.658;2023-03-01T04:57:00;7.10;;;4.63;;
54853;SDS011;40747;49.480;8.658;2023-03-01T04:59:27;9.25;;;4.75;;
54853;SDS011;40747;49.480;8.658;2023-03-01T05:01:54;10.00;;;4.95;;
54853;SDS011;40747;49.480;8.658;2023-03-01T05:04:23;6.90;;;4.15;;
54853;SDS011;40747;49.480;8.658;2023-03-01T05:06:49;13.95;;;7.78;;
54853;SDS011;40747;49.480;8.658;2023-03-01T05:09:15;10.07;;;5.97;;
54853;SDS011;40747;49.480;8.658;2023-03-01T05:11:40;10.95;;;6.70;;
54853;SDS011;40747;49.480;8.658;2023-03-01T05:14:06;8.57;;;5.20;;
54853;SDS011;40747;49.480;8.658;2023-03-01T05:16:33;14.32;;;6.95;;
54853;SDS011;40747;49.480;8.658;2023-03-01T05:18:58;9.65;;;5.20;;
54853;SDS011;40747;49.480;8.658;2023-03-01T05:21:24;6.00;;;3.83;;
54853;SDS011;40747;49.480;8.658;2023-03-01T05:23:49;3.95;;;3.55;;
54853;SDS011;40747;49.480;8.658;2023-03-01T05:26:16;9.55;;;5.57;;
54853;SDS011;40747;49.480;8.658;2023-03-01T05:28:42;15.52;;;6.55;;
54853;SDS011;40747;49.480;8.658;2023-03-01T05:31:08;8.55;;;7.18;;
54853;SDS011;40747;49.480;8.658;2023-03-01T05:33:35;10.95;;;7.15;;
54853;SDS011;40747;49.480;8.658;2023-03-01T05:36:05;16.55;;;9.77;;
54853;SDS011;40747;49.480;8.658;2023-03-01T05:38:32;17.58;;;8.30;;
54853;SDS011;40747;49.480;8.658;2023-03-01T05:40:57;9.18;;;4.43;;
54853;SDS011;40747;49.480;8.658;2023-03-01T05:43:22;24.52;;;12.32;;
54853;SDS011;40747;49.480;8.658;2023-03-01T05:45:48;17.05;;;8.30;;
54853;SDS011;40747;49.480;8.658;2023-03-01T05:48:13;23.50;;;11.57;;
54853;SDS011;40747;49.480;8.658;2023-03-01T05:50:40;18.08;;;7.35;;
54853;SDS011;40747;49.480;8.658;2023-03-01T05:53:13;21.30;;;10.35;;
54853;SDS011;40747;49.480;8.658;2023-03-01T05:55:46;15.10;;;7.40;;
54853;SDS011;40747;49.480;8.658;2023-03-01T05:58:17;21.30;;;10.38;;
54853;SDS011;40747;49.480;8.658;2023-03-01T06:00:43;19.75;;;10.23;;
54853;SDS011;40747;49.480;8.658;2023-03-01T06:03:11;25.73;;;10.60;;
54853;SDS011;40747;49.480;8.658;2023-03-01T06:05:38;21.10;;;9.68;;
54853;SDS011;40747;49.480;8.658;2023-03-01T06:08:04;24.00;;;10.73;;
54853;SDS011;40747;49.480;8.658;2023-03-01T06:10:30;17.20;;;6.32;;
54853;SDS011;40747;49.480;8.658;2023-03-01T06:12:55;10.98;;;6.15;;
54853;SDS011;40747;49.480;8.658;2023-03-01T06:15:21;8.07;;;4.25;;
54853;SDS011;40747;49.480;8.658;2023-03-01T06:17:46;15.10;;;7.70;;
54853;SDS011;40747;49.480;8.658;2023-03-01T06:20:16;9.35;;;4.75;;
54853;SDS011;40747;49.480;8.658;2023-03-01T06:22:47;5.70;;;4.03;;
54853;SDS011;40747;49.480;8.658;2023-03-01T06:25:15;16.73;;;8.93;;
54853;SDS011;40747;49.480;8.658;2023-03-01T06:27:45;10.13;;;5.32;;
54853;SDS011;40747;49.480;8.658;2023-03-01T06:30:12;6.78;;;5.03;;
54853;SDS011;40747;49.480;8.658;2023-03-01T06:32:39;8.55;;;6.40;;
54853;SDS011;40747;49.480;8.658;2023-03-01T06:35:09;7.80;;;4.65;;
54853;SDS011;40747;49.480;8.658;2023-03-01T06:37:38;8.75;;;5.70;;
54853;SDS011;40747;49.480;8.658;2023-03-01T06:40:04;11.00;;;6.28;;
54853;SDS011;40747;49.480;8.658;2023-03-01T06:42:33;10.60;;;4.75;;
54853;SDS011;40747;49.480;8.658;2023-03-01T06:44:59;7.85;;;5.32;;
54853;SDS011;40747;49.480;8.658;2023-03-01T06:47:25;9.45;;;5.18;;
54853;SDS011;40747;49.480;8.658;2023-03-01T06:49:50;8.65;;;6.07;;
54853;SDS011;40747;49.480;8.658;2023-03-01T06:52:15;8.27;;;5.00;;
54853;SDS011;40747;49.480;8.658;2023-03-01T06:54:40;9.68;;;6.07;;
54853;SDS011;40747;49.480;8.658;2023-03-01T06:57:06;10.60;;;6.45;;
54853;SDS011;40747;49.480;8.658;2023-03-01T06:59:31;9.55;;;5.25;;
54853;SDS011;40747;49.480;8.658;2023-03-01T07:01:56;8.65;;;5.82;;
54853;SDS011;40747;49.480;8.658;2023-03-01T07:04:22;13.43;;;6.65;;
54853;SDS011;40747;49.480;8.658;2023-03-01T07:06:47;8.10;;;4.18;;
54853;SDS011;40747;49.480;8.658;2023-03-01T07:09:19;10.60;;;5.63;;
54853;SDS011;40747;49.480;8.658;2023-03-01T07:11:46;10.15;;;6.07;;
54853;SDS011;40747;49.480;8.658;2023-03-01T07:14:11;8.48;;;5.18;;
54853;SDS011;40747;49.480;8.658;2023-03-01T07:16:37;10.73;;;6.82;;
54853;SDS011;40747;49.480;8.658;2023-03-01T07:19:02;10.63;;;4.55;;
54853;SDS011;40747;49.480;8.658;2023-03-01T07:21:27;10.23;;;4.55;;
54853;SDS011;40747;49.480;8.658;2023-03-01T07:23:53;7.50;;;4.85;;
54853;SDS011;40747;49.480;8.658;2023-03-01T07:26:18;10.90;;;5.93;;
54853;SDS011;40747;49.480;8.658;2023-03-01T07:28:43;7.93;;;4.78;;
54853;SDS011;40747;49.480;8.658;2023-03-01T07:31:08;13.20;;;7.65;;
54853;SDS011;40747;49.480;8.658;2023-03-01T07:33:34;8.45;;;3.67;;
54853;SDS011;40747;49.480;8.658;2023-03-01T07:36:00;9.82;;;4.95;;
54853;SDS011;40747;49.480;8.658;2023-03-01T07:38:27;13.48;;;6.40;;
54853;SDS011;40747;49.480;8.658;2023-03-01T07:40:54;11.93;;;7.00;;
54853;SDS011;40747;49.480;8.658;2023-03-01T07:43:23;12.70;;;7.82;;
54853;SDS011;40747;49.480;8.658;2023-03-01T07:45:49;8.35;;;4.88;;
54853;SDS011;40747;49.480;8.658;2023-03-01T07:48:14;8.52;;;5.25;;
54853;SDS011;40747;49.480;8.658;2023-03-01T07:50:39;18.63;;;7.05;;
54853;SDS011;40747;49.480;8.658;2023-03-01T07:53:04;11.73;;;6.13;;
54853;SDS011;40747;49.480;8.658;2023-03-01T07:55:30;10.98;;;5.85;;
54853;SDS011;40747;49.480;8.658;2023-03-01T07:57:55;11.82;;;7.47;;
54853;SDS011;40747;49.480;8.658;2023-03-01T08:00:20;13.82;;;7.82;;
54853;SDS011;40747;49.480;8.658;2023-03-01T08:02:46;13.50;;;6.97;;
54853;SDS011;40747;49.480;8.658;2023-03-01T08:05:11;14.05;;;6.35;;
54853;SDS011;40747;49.480;8.658;2023-03-01T08:07:36;12.50;;;7.07;;
54853;SDS011;40747;49.480;8.658;2023-03-01T08:10:02;8.10;;;4.40;;
54853;SDS011;40747;49.480;8.658;2023-03-01T08:12:28;8.35;;;5.25;;
54853;SDS011;40747;49.480;8.658;2023-03-01T08:14:53;9.50;;;5.90;;
54853;SDS011;40747;49.480;8.658;2023-03-01T08:17:19;12.95;;;6.78;;
54853;SDS011;40747;49.480;8.658;2023-03-01T08:19:44;11.27;;;5.20;;
54853;SDS011;40747;49.480;8.658;2023-03-01T08:22:10;16.17;;;5.45;;
54853;SDS011;40747;49.480;8.658;2023-03-01T08:24:35;9.20;;;5.28;;
54853;SDS011;40747;49.480;8.658;2023-03-01T08:27:00;7.75;;;5.28;;
54853;SDS011;40747;49.480;8.658;2023-03-01T08:29:27;14.82;;;5.70;;
54853;SDS011;40747;49.480;8.658;2023-03-01T08:31:53;8.68;;;4.68;;
54853;SDS011;40747;49.480;8.658;2023-03-01T08:34:18;14.00;;;7.35;;
54853;SDS011;40747;49.480;8.658;2023-03-01T08:36:44;6.72;;;4.35;;
54853;SDS011;40747;49.480;8.658;2023-03-01T08:39:12;10.50;;;6.95;;
54853;SDS011;40747;49.480;8.658;2023-03-01T08:41:39;7.07;;;4.50;;
54853;SDS011;40747;49.480;8.658;2023-03-01T08:44:04;10.20;;;5.57;;
54853;SDS011;40747;49.480;8.658;2023-03-01T08:46:32;12.98;;;6.85;;
54853;SDS011;40747;49.480;8.658;2023-03-01T08:48:58;10.60;;;5.28;;
54853;SDS011;40747;49.480;8.658;2023-03-01T08:51:24;16.98;;;8.05;;
54853;SDS011;40747;49.480;8.658;2023-03-01T08:53:51;12.27;;;4.72;;
54853;SDS011;40747;49.480;8.658;2023-03-01T08:56:16;10.93;;;6.28;;
54853;SDS011;40747;49.480;8.658;2023-03-01T08:58:44;8.18;;;4.63;;
54853;SDS011;40747;49.480;8.658;2023-03-01T09:01:14;10.18;;;6.05;;
54853;SDS011;40747;49.480;8.658;2023-03-01T09:03:41;13.73;;;7.68;;
54853;SDS011;40747;49.480;8.658;2023-03-01T09:06:08;12.82;;;5.72;;
54853;SDS011;40747;49.480;8.658;2023-03-01T09:08:34;10.93;;;6.43;;
54853;SDS011;40747;49.480;8.658;2023-03-01T09:11:03;15.93;;;7.88;;
54853;SDS011;40747;49.480;8.658;2023-03-01T09:13:30;12.60;;;5.75;;
54853;SDS011;40747;49.480;8.658;2023-03-01T09:15:56;13.32;;;7.18;;
54853;SDS011;40747;49.480;8.658;2023-03-01T09:18:26;10.68;;;5.18;;
54853;SDS011;40747;49.480;8.658;2023-03-01T09:20:51;10.70;;;6.53;;
54853;SDS011;40747;49.480;8.658;2023-03-01T09:23:16;12.43;;;6.28;;
54853;SDS011;40747;49.480;8.658;2023-03-01T09:25:41;14.45;;;8.30;;
54853;SDS011;40747;49.480;8.658;2023-03-01T09:28:07;10.65;;;5.57;;
54853;SDS011;40747;49.480;8.658;2023-03-01T09:30:32;13.00;;;7.95;;
54853;SDS011;40747;49.480;8.658;2023-03-01T09:32:57;11.70;;;6.95;;
54853;SDS011;40747;49.480;8.658;2023-03-01T09:35:23;20.30;;;7.82;;
54853;SDS011;40747;49.480;8.658;2023-03-01T09:37:48;12.43;;;6.43;;
54853;SDS011;40747;49.480;8.658;2023-03-01T09:40:19;14.25;;;6.68;;
54853;SDS011;40747;49.480;8.658;2023-03-01T09:42:52;8.95;;;6.20;;
54853;SDS011;40747;49.480;8.658;2023-03-01T09:45:25;15.90;;;7.18;;
54853;SDS011;40747;49.480;8.658;2023-03-01T09:48:02;13.32;;;6.28;;
54853;SDS011;40747;49.480;8.658;2023-03-01T09:50:35;8.32;;;5.20;;
54853;SDS011;40747;49.480;8.658;2023-03-01T09:55:51;13.80;;;7.57;;
54853;SDS011;40747;49.480;8.658;2023-03-01T10:01:28;11.80;;;7.15;;
54853;SDS011;40747;49.480;8.658;2023-03-01T10:06:26;14.50;;;8.63;;
54853;SDS011;40747;49.480;8.658;2023-03-01T10:08:58;13.50;;;6.35;;
54853;SDS011;40747;49.480;8.658;2023-03-01T10:11:36;13.20;;;7.80;;
54853;SDS011;40747;49.480;8.658;2023-03-01T10:14:09;19.77;;;6.95;;
54853;SDS011;40747;49.480;8.658;2023-03-01T10:16:48;15.35;;;7.28;;
54853;SDS011;40747;49.480;8.658;2023-03-01T10:19:32;16.02;;;8.30;;
54853;SDS011;40747;49.480;8.658;2023-03-01T10:22:05;16.58;;;8.52;;
54853;SDS011;40747;49.480;8.658;2023-03-01T10:24:35;14.73;;;7.78;;
54853;SDS011;40747;49.480;8.658;2023-03-01T10:27:04;17.40;;;8.73;;
54853;SDS011;40747;49.480;8.658;2023-03-01T10:29:44;17.50;;;8.35;;
54853;SDS011;40747;49.480;8.658;2023-03-01T10:32:13;12.32;;;7.50;;
54853;SDS011;40747;49.480;8.658;2023-03-01T10:34:39;13.20;;;7.63;;
54853;SDS011;40747;49.480;8.658;2023-03-01T10:37:11;16.15;;;7.85;;
54853;SDS011;40747;49.480;8.658;2023-03-01T10:40:05;10.68;;;6.05;;
54853;SDS011;40747;49.480;8.658;2023-03-01T10:42:39;13.52;;;6.50;;
54853;SDS011;40747;49.480;8.658;2023-03-01T10:47:44;12.32;;;6.22;;
54853;SDS011;40747;49.480;8.658;2023-03-01T10:50:18;17.27;;;7.45;;
54853;SDS011;40747;49.480;8.658;2023-03-01T10:52:57;12.30;;;6.30;;
54853;SDS011;40747;49.480;8.658;2023-03-01T10:55:26;12.65;;;6.80;;
54853;SDS011;40747;49.480;8.658;2023-03-01T11:03:20;16.40;;;8.13;;
54853;SDS011;40747;49.480;8.658;2023-03-01T11:08:26;8.90;;;4.80;;
54853;SDS011;40747;49.480;8.658;2023-03-01T11:11:05;14.07;;;6.78;;
54853;SDS011;40747;49.480;8.658;2023-03-01T11:13:34;10.98;;;5.72;;
54853;SDS011;40747;49.480;8.658;2023-03-01T11:16:10;12.55;;;7.18;;
54853;SDS011;40747;49.480;8.658;2023-03-01T11:18:37;12.45;;;6.53;;
54853;SDS011;40747;49.480;8.658;2023-03-01T11:21:02;10.10;;;5.75;;
54853;SDS011;40747;49.480;8.658;2023-03-01T11:23:30;14.00;;;6.75;;
54853;SDS011;40747;49.480;8.658;2023-03-01T11:26:01;9.85;;;5.20;;
54853;SDS011;40747;49.480;8.658;2023-03-01T11:28:30;8.90;;;5.78;;
54853;SDS011;40747;49.480;8.658;2023-03-01T11:31:06;11.48;;;5.72;;
54853;SDS011;40747;49.480;8.658;2023-03-01T11:33:55;12.45;;;6.93;;
54853;SDS011;40747;49.480;8.658;2023-03-01T11:36:30;13.00;;;4.93;;
54853;SDS011;40747;49.480;8.658;2023-03-01T11:39:02;10.98;;;6.05;;
54853;SDS011;40747;49.480;8.658;2023-03-01T11:41:38;14.35;;;6.93;;
54853;SDS011;40747;49.480;8.658;2023-03-01T11:44:10;13.30;;;7.03;;
54853;SDS011;40747;49.480;8.658;2023-03-01T11:46:44;13.70;;;6.22;;
54853;SDS011;40747;49.480;8.658;2023-03-01T12:09:11;14.35;;;7.03;;
54853;SDS011;40747;49.480;8.658;2023-03-01T12:11:43;15.30;;;8.48;;
54853;SDS011;40747;49.480;8.658;2023-03-01T12:14:21;15.50;;;6.82;;
54853;SDS011;40747;49.480;8.658;2023-03-01T12:19:42;14.25;;;8.50;;
54853;SDS011;40747;49.480;8.658;2023-03-01T12:22:36;13.80;;;6.93;;
54853;SDS011;40747;49.480;8.658;2023-03-01T12:25:16;15.32;;;8.65;;
54853;SDS011;40747;49.480;8.658;2023-03-01T12:31:01;14.90;;;7.10;;
54853;SDS011;40747;49.480;8.658;2023-03-01T12:34:01;14.73;;;7.95;;
54853;SDS011;40747;49.480;8.658;2023-03-01T12:36:55;15.00;;;8.38;;
54853;SDS011;40747;49.480;8.658;2023-03-01T12:39:40;16.35;;;7.32;;
54853;SDS011;40747;49.480;8.658;2023-03-01T12:50:41;10.87;;;5.93;;
54853;SDS011;40747;49.480;8.658;2023-03-01T12:55:56;13.95;;;6.88;;
54853;SDS011;40747;49.480;8.658;2023-03-01T13:04:02;16.55;;;7.20;;
54853;SDS011;40747;49.480;8.658;2023-03-01T13:09:35;12.18;;;5.32;;
54853;SDS011;40747;49.480;8.658;2023-03-01T13:17:55;14.45;;;7.00;;
54853;SDS011;40747;49.480;8.658;2023-03-01T13:20:27;10.35;;;6.13;;
54853;SDS011;40747;49.480;8.658;2023-03-01T13:23:02;12.52;;;7.60;;
54853;SDS011;40747;49.480;8.658;2023-03-01T13:25:30;11.00;;;6.13;;
54853;SDS011;40747;49.480;8.658;2023-03-01T13:28:36;14.25;;;5.95;;
54853;SDS011;40747;49.480;8.658;2023-03-01T13:30:59;15.75;;;8.10;;
54853;SDS011;40747;49.480;8.658;2023-03-01T13:35:51;16.17;;;6.80;;
54853;SDS011;40747;49.480;8.658;2023-03-01T13:38:37;7.32;;;5.15;;
54853;SDS011;40747;49.480;8.658;2023-03-01T13:52:06;12.15;;;5.93;;
54853;SDS011;40747;49.480;8.658;2023-03-01T13:54:31;12.65;;;6.53;;
54853;SDS011;40747;49.480;8.658;2023-03-01T13:56:58;12.90;;;7.28;;
54853;SDS011;40747;49.480;8.658;2023-03-01T13:59:25;12.93;;;6.75;;
54853;SDS011;40747;49.480;8.658;2023-03-01T14:01:52;14.98;;;7.15;;
54853;SDS011;40747;49.480;8.658;2023-03-01T14:04:24;14.93;;;7.60;;
54853;SDS011;40747;49.480;8.658;2023-03-01T14:07:08;12.65;;;6.88;;
54853;SDS011;40747;49.480;8.658;2023-03-01T14:09:34;14.68;;;7.43;;
54853;SDS011;40747;49.480;8.658;2023-03-01T14:12:10;16.00;;;7.30;;
54853;SDS011;40747;49.480;8.658;2023-03-01T14:19:57;15.77;;;8.80;;
54853;SDS011;40747;49.480;8.658;2023-03-01T14:22:25;10.50;;;5.55;;
54853;SDS011;40747;49.480;8.658;2023-03-01T14:24:57;12.60;;;7.00;;
54853;SDS011;40747;49.480;8.658;2023-03-01T14:27:30;13.77;;;5.50;;
54853;SDS011;40747;49.480;8.658;2023-03-01T14:30:00;15.35;;;5.45;;
54853;SDS011;40747;49.480;8.658;2023-03-01T14:32:28;17.73;;;6.13;;
54853;SDS011;40747;49.480;8.658;2023-03-01T14:34:56;12.95;;;6.93;;
54853;SDS011;40747;49.480;8.658;2023-03-01T14:39:56;14.65;;;7.57;;
54853;SDS011;40747;49.480;8.658;2023-03-01T14:42:23;13.90;;;5.88;;
54853;SDS011;40747;49.480;8.658;2023-03-01T14:44:53;13.65;;;6.85;;
54853;SDS011;40747;49.480;8.658;2023-03-01T14:50:01;10.13;;;5.80;;
54853;SDS011;40747;49.480;8.658;2023-03-01T14:52:33;9.98;;;5.25;;
54853;SDS011;40747;49.480;8.658;2023-03-01T14:55:01;15.30;;;6.13;;
54853;SDS011;40747;49.480;8.658;2023-03-01T14:57:29;13.85;;;5.68;;
54853;SDS011;40747;49.480;8.658;2023-03-01T14:59:55;7.85;;;4.75;;
54853;SDS011;40747;49.480;8.658;2023-03-01T15:02:25;8.52;;;5.05;;
54853;SDS011;40747;49.480;8.658;2023-03-01T15:04:54;8.55;;;4.95;;
54853;SDS011;40747;49.480;8.658;2023-03-01T15:07:47;7.60;;;4.40;;
54853;SDS011;40747;49.480;8.658;2023-03-01T15:10:16;11.60;;;6.10;;
54853;SDS011;40747;49.480;8.658;2023-03-01T15:12:45;12.23;;;6.72;;
54853;SDS011;40747;49.480;8.658;2023-03-01T15:20:47;13.07;;;6.38;;
54853;SDS011;40747;49.480;8.658;2023-03-01T15:26:06;11.18;;;5.30;;
54853;SDS011;40747;49.480;8.658;2023-03-01T15:28:49;9.15;;;5.13;;
54853;SDS011;40747;49.480;8.658;2023-03-01T15:31:20;9.07;;;5.18;;
54853;SDS011;40747;49.480;8.658;2023-03-01T15:33:49;10.27;;;5.70;;
54853;SDS011;40747;49.480;8.658;2023-03-01T15:36:36;8.65;;;4.93;;
54853;SDS011;40747;49.480;8.658;2023-03-01T15:39:05;10.23;;;5.35;;
54853;SDS011;40747;49.480;8.658;2023-03-01T15:41:46;9.63;;;4.80;;
54853;SDS011;40747;49.480;8.658;2023-03-01T15:44:16;7.57;;;4.70;;
54853;SDS011;40747;49.480;8.658;2023-03-01T15:46:50;14.23;;;6.03;;
54853;SDS011;40747;49.480;8.658;2023-03-01T15:52:05;11.90;;;5.70;;
54853;SDS011;40747;49.480;8.658;2023-03-01T15:54:36;12.57;;;6.90;;
54853;SDS011;40747;49.480;8.658;2023-03-01T15:57:05;12.27;;;5.63;;
54853;SDS011;40747;49.480;8.658;2023-03-01T15:59:30;10.95;;;6.63;;
54853;SDS011;40747;49.480;8.658;2023-03-01T16:01:55;11.63;;;6.43;;
54853;SDS011;40747;49.480;8.658;2023-03-01T16:04:21;14.00;;;6.65;;
54853;SDS011;40747;49.480;8.658;2023-03-01T16:06:48;8.65;;;6.55;;
54853;SDS011;40747;49.480;8.658;2023-03-01T16:09:20;11.05;;;5.95;;
54853;SDS011;40747;49.480;8.658;2023-03-01T16:11:49;12.88;;;6.70;;
54853;SDS011;40747;49.480;8.658;2023-03-01T16:14:16;10.77;;;6.10;;
54853;SDS011;40747;49.480;8.658;2023-03-01T16:16:41;9.10;;;6.03;;
54853;SDS011;40747;49.480;8.658;2023-03-01T16:19:07;9.98;;;5.03;;
54853;SDS011;40747;49.480;8.658;2023-03-01T16:21:33;12.25;;;6.70;;
54853;SDS011;40747;49.480;8.658;2023-03-01T16:23:58;10.13;;;5.28;;
54853;SDS011;40747;49.480;8.658;2023-03-01T16:26:23;12.77;;;5.60;;
54853;SDS011;40747;49.480;8.658;2023-03-01T16:28:49;11.55;;;5.22;;
54853;SDS011;40747;49.480;8.658;2023-03-01T16:31:16;9.45;;;4.90;;
54853;SDS011;40747;49.480;8.658;2023-03-01T16:33:46;11.88;;;6.68;;
54853;SDS011;40747;49.480;8.658;2023-03-01T16:36:14;11.77;;;6.65;;
54853;SDS011;40747;49.480;8.658;2023-03-01T16:38:42;13.48;;;6.25;;
54853;SDS011;40747;49.480;8.658;2023-03-01T16:41:14;13.25;;;7.22;;
54853;SDS011;40747;49.480;8.658;2023-03-01T16:43:40;12.80;;;5.53;;
54853;SDS011;40747;49.480;8.658;2023-03-01T16:46:13;10.07;;;5.65;;
54853;SDS011;40747;49.480;8.658;2023-03-01T16:48:39;8.80;;;5.30;;